sensor_id;sensor_type;location;lat;lon;timestamp;P1;durP1;ratioP1;P2;durP2;ratioP2
9461;SDS011;4769;42.660;23.262;2023-09-12T00:02:16;5.53;;;3.88;;
9461;SDS011;4769;42.660;23.262;2023-09-12T00:04:42;6.43;;;3.78;;
9461;SDS011;4769;42.660;23.262;2023-09-12T00:07:07;4.15;;;3.30;;
9461;SDS011;4769;42.660;23.262;2023-09-12T00:09:33;3.90;;;3.50;;
9461;SDS011;4769;42.660;23.262;2023-09-12T00:11:59;7.93;;;3.30;;
9461;SDS011;4769;42.660;23.262;2023-09-12T00:14:24;3.97;;;3.25;;
9461;SDS011;4769;42.660;23.262;2023-09-12T00:16:53;7.15;;;3.88;;
9461;SDS011;4769;42.660;23.262;2023-09-12T00:19:19;5.78;;;3.45;;
9461;SDS011;4769;42.660;23.262;2023-09-12T00:21:44;5.70;;;3.70;;
9461;SDS011;4769;42.660;23.262;2023-09-12T00:24:10;6.13;;;3.38;;
9461;SDS011;4769;42.660;23.262;2023-09-12T00:26:35;6.85;;;3.38;;
9461;SDS011;4769;42.660;23.262;2023-09-12T00:29:01;5.82;;;3.50;;
9461;SDS011;4769;42.660;23.262;2023-09-12T00:31:27;3.80;;;3.25;;
9461;SDS011;4769;42.660;23.262;2023-09-12T00:33:55;5.47;;;3.97;;
9461;SDS011;4769;42.660;23.262;2023-09-12T00:36:21;5.03;;;2.97;;
9461;SDS011;4769;42.660;23.262;2023-09-12T00:38:47;6.13;;;3.63;;
9461;SDS011;4769;42.660;23.262;2023-09-12T00:41:12;4.75;;;3.30;;
9461;SDS011;4769;42.660;23.262;2023-09-12T00:43:38;4.60;;;3.55;;
9461;SDS011;4769;42.660;23.262;2023-09-12T00:46:04;5.90;;;3.67;;
9461;SDS011;4769;42.660;23.262;2023-09-12T00:48:29;6.97;;;3.67;;
9461;SDS011;4769;42.660;23.262;2023-09-12T00:50:58;5.78;;;3.30;;
9461;SDS011;4769;42.660;23.262;2023-09-12T00:53:24;3.95;;;3.17;;
9461;SDS011;4769;42.660;23.262;2023-09-12T00:55:51;5.28;;;3.53;;
9461;SDS011;4769;42.660;23.262;2023-09-12T00:58:21;4.43;;;3.58;;
9461;SDS011;4769;42.660;23.262;2023-09-12T01:00:46;4.25;;;3.60;;
9461;SDS011;4769;42.660;23.262;2023-09-12T01:03:12;5.25;;;3.40;;
9461;SDS011;4769;42.660;23.262;2023-09-12T01:05:38;5.82;;;3.60;;
9461;SDS011;4769;42.660;23.262;2023-09-12T01:08:09;5.00;;;3.40;;
9461;SDS011;4769;42.660;23.262;2023-09-12T01:10:35;6.82;;;3.67;;
9461;SDS011;4769;42.660;23.262;2023-09-12T01:13:01;6.82;;;3.85;;
9461;SDS011;4769;42.660;23.262;2023-09-12T01:15:27;6.38;;;3.33;;
9461;SDS011;4769;42.660;23.262;2023-09-12T01:17:52;7.00;;;3.95;;
9461;SDS011;4769;42.660;23.262;2023-09-12T01:20:19;4.50;;;3.03;;
9461;SDS011;4769;42.660;23.262;2023-09-12T01:22:52;5.82;;;3.25;;
9461;SDS011;4769;42.660;23.262;2023-09-12T01:25:39;7.93;;;4.20;;
9461;SDS011;4769;42.660;23.262;2023-09-12T01:28:19;6.32;;;3.65;;
9461;SDS011;4769;42.660;23.262;2023-09-12T01:30:49;6.15;;;3.33;;
9461;SDS011;4769;42.660;23.262;2023-09-12T01:33:17;7.57;;;3.63;;
9461;SDS011;4769;42.660;23.262;2023-09-12T01:35:43;6.18;;;3.60;;
9461;SDS011;4769;42.660;23.262;2023-09-12T01:38:09;6.18;;;3.88;;
9461;SDS011;4769;42.660;23.262;2023-09-12T01:40:37;4.88;;;3.42;;
9461;SDS011;4769;42.660;23.262;2023-09-12T01:43:13;7.20;;;4.07;;
9461;SDS011;4769;42.660;23.262;2023-09-12T01:45:44;5.97;;;3.63;;
9461;SDS011;4769;42.660;23.262;2023-09-12T01:48:10;6.18;;;4.18;;
9461;SDS011;4769;42.660;23.262;2023-09-12T01:50:37;6.60;;;3.72;;
9461;SDS011;4769;42.660;23.262;2023-09-12T01:53:03;5.57;;;3.60;;
9461;SDS011;4769;42.660;23.262;2023-09-12T01:55:29;5.97;;;3.53;;
9461;SDS011;4769;42.660;23.262;2023-09-12T01:57:56;5.60;;;3.47;;
9461;SDS011;4769;42.660;23.262;2023-09-12T02:00:21;7.28;;;3.42;;
9461;SDS011;4769;42.660;23.262;2023-09-12T02:02:50;6.07;;;3.30;;
9461;SDS011;4769;42.660;23.262;2023-09-12T02:05:16;5.40;;;4.00;;
9461;SDS011;4769;42.660;23.262;2023-09-12T02:07:44;7.50;;;3.78;;
9461;SDS011;4769;42.660;23.262;2023-09-12T02:10:11;6.88;;;3.97;;
9461;SDS011;4769;42.660;23.262;2023-09-12T02:12:37;4.57;;;3.50;;
9461;SDS011;4769;42.660;23.262;2023-09-12T02:15:04;9.98;;;4.07;;
9461;SDS011;4769;42.660;23.262;2023-09-12T02:17:31;5.15;;;3.80;;
9461;SDS011;4769;42.660;23.262;2023-09-12T02:19:59;6.32;;;4.25;;
9461;SDS011;4769;42.660;23.262;2023-09-12T02:22:25;5.22;;;3.88;;
9461;SDS011;4769;42.660;23.262;2023-09-12T02:24:50;9.90;;;4.25;;
9461;SDS011;4769;42.660;23.262;2023-09-12T02:27:16;6.22;;;3.83;;
9461;SDS011;4769;42.660;23.262;2023-09-12T02:29:42;5.72;;;3.75;;
9461;SDS011;4769;42.660;23.262;2023-09-12T02:32:08;7.65;;;4.53;;
9461;SDS011;4769;42.660;23.262;2023-09-12T02:34:34;7.65;;;4.13;;
9461;SDS011;4769;42.660;23.262;2023-09-12T02:37:02;7.03;;;4.40;;
9461;SDS011;4769;42.660;23.262;2023-09-12T02:39:28;11.02;;;4.30;;
9461;SDS011;4769;42.660;23.262;2023-09-12T02:41:54;8.27;;;4.38;;
9461;SDS011;4769;42.660;23.262;2023-09-12T02:44:20;7.50;;;4.00;;
9461;SDS011;4769;42.660;23.262;2023-09-12T02:46:46;8.18;;;3.90;;
9461;SDS011;4769;42.660;23.262;2023-09-12T02:49:11;5.85;;;4.10;;
9461;SDS011;4769;42.660;23.262;2023-09-12T02:51:38;4.85;;;3.60;;
9461;SDS011;4769;42.660;23.262;2023-09-12T02:54:06;7.00;;;3.85;;
9461;SDS011;4769;42.660;23.262;2023-09-12T02:56:32;6.43;;;3.85;;
9461;SDS011;4769;42.660;23.262;2023-09-12T02:58:58;6.53;;;4.03;;
9461;SDS011;4769;42.660;23.262;2023-09-12T03:01:23;9.55;;;4.18;;
9461;SDS011;4769;42.660;23.262;2023-09-12T03:03:49;6.30;;;3.67;;
9461;SDS011;4769;42.660;23.262;2023-09-12T03:06:15;5.85;;;3.42;;
9461;SDS011;4769;42.660;23.262;2023-09-12T03:08:41;5.78;;;3.70;;
9461;SDS011;4769;42.660;23.262;2023-09-12T03:11:10;4.15;;;3.65;;
9461;SDS011;4769;42.660;23.262;2023-09-12T03:13:36;5.50;;;3.97;;
9461;SDS011;4769;42.660;23.262;2023-09-12T03:16:02;4.88;;;4.05;;
9461;SDS011;4769;42.660;23.262;2023-09-12T03:18:28;6.03;;;3.85;;
9461;SDS011;4769;42.660;23.262;2023-09-12T03:20:54;6.82;;;3.85;;
9461;SDS011;4769;42.660;23.262;2023-09-12T03:23:20;5.53;;;4.05;;
9461;SDS011;4769;42.660;23.262;2023-09-12T03:25:46;5.95;;;4.10;;
9461;SDS011;4769;42.660;23.262;2023-09-12T03:28:14;8.13;;;4.47;;
9461;SDS011;4769;42.660;23.262;2023-09-12T03:30:40;5.32;;;3.88;;
9461;SDS011;4769;42.660;23.262;2023-09-12T03:33:05;7.38;;;3.65;;
9461;SDS011;4769;42.660;23.262;2023-09-12T03:35:32;5.97;;;3.90;;
9461;SDS011;4769;42.660;23.262;2023-09-12T03:37:58;4.93;;;3.10;;
9461;SDS011;4769;42.660;23.262;2023-09-12T03:40:24;4.40;;;3.30;;
9461;SDS011;4769;42.660;23.262;2023-09-12T03:42:49;4.15;;;3.58;;
9461;SDS011;4769;42.660;23.262;2023-09-12T03:45:18;6.78;;;3.90;;
9461;SDS011;4769;42.660;23.262;2023-09-12T03:47:44;4.10;;;3.30;;
9461;SDS011;4769;42.660;23.262;2023-09-12T03:50:09;7.55;;;3.72;;
9461;SDS011;4769;42.660;23.262;2023-09-12T03:52:35;5.07;;;3.35;;
9461;SDS011;4769;42.660;23.262;2023-09-12T03:55:01;4.63;;;3.15;;
9461;SDS011;4769;42.660;23.262;2023-09-12T03:57:26;5.13;;;3.60;;
9461;SDS011;4769;42.660;23.262;2023-09-12T03:59:52;5.63;;;3.20;;
9461;SDS011;4769;42.660;23.262;2023-09-12T04:02:20;6.07;;;4.05;;
9461;SDS011;4769;42.660;23.262;2023-09-12T04:04:46;4.45;;;3.40;;
9461;SDS011;4769;42.660;23.262;2023-09-12T04:07:12;4.43;;;3.30;;
9461;SDS011;4769;42.660;23.262;2023-09-12T04:09:37;6.93;;;3.85;;
9461;SDS011;4769;42.660;23.262;2023-09-12T04:12:03;6.88;;;3.63;;
9461;SDS011;4769;42.660;23.262;2023-09-12T04:14:30;5.47;;;3.30;;
9461;SDS011;4769;42.660;23.262;2023-09-12T04:16:56;7.38;;;3.55;;
9461;SDS011;4769;42.660;23.262;2023-09-12T04:19:24;5.25;;;3.85;;
9461;SDS011;4769;42.660;23.262;2023-09-12T04:21:50;4.45;;;3.88;;
9461;SDS011;4769;42.660;23.262;2023-09-12T04:24:16;4.18;;;3.38;;
9461;SDS011;4769;42.660;23.262;2023-09-12T04:26:41;8.25;;;3.83;;
9461;SDS011;4769;42.660;23.262;2023-09-12T04:29:07;6.45;;;3.85;;
9461;SDS011;4769;42.660;23.262;2023-09-12T04:31:33;7.63;;;4.60;;
9461;SDS011;4769;42.660;23.262;2023-09-12T04:33:58;6.70;;;3.63;;
9461;SDS011;4769;42.660;23.262;2023-09-12T04:36:27;6.13;;;4.45;;
9461;SDS011;4769;42.660;23.262;2023-09-12T04:38:52;5.63;;;3.97;;
9461;SDS011;4769;42.660;23.262;2023-09-12T04:41:18;7.07;;;4.13;;
9461;SDS011;4769;42.660;23.262;2023-09-12T04:43:44;7.82;;;4.45;;
9461;SDS011;4769;42.660;23.262;2023-09-12T04:46:10;12.80;;;5.68;;
9461;SDS011;4769;42.660;23.262;2023-09-12T04:48:38;10.93;;;4.70;;
9461;SDS011;4769;42.660;23.262;2023-09-12T04:51:04;8.18;;;4.55;;
9461;SDS011;4769;42.660;23.262;2023-09-12T04:53:32;9.60;;;5.00;;
9461;SDS011;4769;42.660;23.262;2023-09-12T04:55:58;10.93;;;4.82;;
9461;SDS011;4769;42.660;23.262;2023-09-12T04:58:24;10.70;;;5.93;;
9461;SDS011;4769;42.660;23.262;2023-09-12T05:00:49;14.43;;;5.88;;
9461;SDS011;4769;42.660;23.262;2023-09-12T05:03:17;10.27;;;4.82;;
9461;SDS011;4769;42.660;23.262;2023-09-12T05:05:45;7.45;;;4.72;;
9461;SDS011;4769;42.660;23.262;2023-09-12T05:08:10;12.32;;;4.45;;
9461;SDS011;4769;42.660;23.262;2023-09-12T05:10:39;7.57;;;4.00;;
9461;SDS011;4769;42.660;23.262;2023-09-12T05:13:05;8.45;;;4.05;;
9461;SDS011;4769;42.660;23.262;2023-09-12T05:15:31;6.78;;;4.32;;
9461;SDS011;4769;42.660;23.262;2023-09-12T05:17:56;4.38;;;3.67;;
9461;SDS011;4769;42.660;23.262;2023-09-12T05:20:22;6.45;;;3.75;;
9461;SDS011;4769;42.660;23.262;2023-09-12T05:22:48;6.57;;;3.92;;
9461;SDS011;4769;42.660;23.262;2023-09-12T05:25:14;11.10;;;4.55;;
9461;SDS011;4769;42.660;23.262;2023-09-12T05:27:42;5.78;;;3.70;;
9461;SDS011;4769;42.660;23.262;2023-09-12T05:30:08;7.95;;;4.35;;
9461;SDS011;4769;42.660;23.262;2023-09-12T05:32:34;5.40;;;4.38;;
9461;SDS011;4769;42.660;23.262;2023-09-12T05:35:00;11.60;;;5.13;;
9461;SDS011;4769;42.660;23.262;2023-09-12T05:37:25;7.85;;;4.72;;
9461;SDS011;4769;42.660;23.262;2023-09-12T05:39:51;5.72;;;4.47;;
9461;SDS011;4769;42.660;23.262;2023-09-12T05:42:17;11.13;;;5.30;;
9461;SDS011;4769;42.660;23.262;2023-09-12T05:44:45;10.05;;;5.13;;
9461;SDS011;4769;42.660;23.262;2023-09-12T05:47:11;9.00;;;5.28;;
9461;SDS011;4769;42.660;23.262;2023-09-12T05:49:36;11.52;;;5.03;;
9461;SDS011;4769;42.660;23.262;2023-09-12T05:52:02;9.93;;;5.15;;
9461;SDS011;4769;42.660;23.262;2023-09-12T05:54:29;14.15;;;6.10;;
9461;SDS011;4769;42.660;23.262;2023-09-12T05:56:54;11.50;;;6.60;;
9461;SDS011;4769;42.660;23.262;2023-09-12T05:59:20;17.63;;;6.25;;
9461;SDS011;4769;42.660;23.262;2023-09-12T06:01:51;10.77;;;6.25;;
9461;SDS011;4769;42.660;23.262;2023-09-12T06:04:16;14.30;;;5.60;;
9461;SDS011;4769;42.660;23.262;2023-09-12T06:06:42;10.18;;;5.60;;
9461;SDS011;4769;42.660;23.262;2023-09-12T06:09:08;11.88;;;5.50;;
9461;SDS011;4769;42.660;23.262;2023-09-12T06:11:33;7.85;;;5.43;;
9461;SDS011;4769;42.660;23.262;2023-09-12T06:13:59;14.35;;;5.93;;
9461;SDS011;4769;42.660;23.262;2023-09-12T06:16:25;8.77;;;5.45;;
9461;SDS011;4769;42.660;23.262;2023-09-12T06:18:53;13.65;;;5.72;;
9461;SDS011;4769;42.660;23.262;2023-09-12T06:21:19;9.65;;;5.30;;
9461;SDS011;4769;42.660;23.262;2023-09-12T06:23:45;8.55;;;4.78;;
9461;SDS011;4769;42.660;23.262;2023-09-12T06:26:10;12.90;;;6.13;;
9461;SDS011;4769;42.660;23.262;2023-09-12T06:28:36;7.15;;;5.75;;
9461;SDS011;4769;42.660;23.262;2023-09-12T06:31:02;15.30;;;5.85;;
9461;SDS011;4769;42.660;23.262;2023-09-12T06:33:27;10.63;;;6.03;;
9461;SDS011;4769;42.660;23.262;2023-09-12T06:35:56;9.60;;;6.13;;
9461;SDS011;4769;42.660;23.262;2023-09-12T06:38:22;12.77;;;6.15;;
9461;SDS011;4769;42.660;23.262;2023-09-12T06:40:47;11.25;;;6.40;;
9461;SDS011;4769;42.660;23.262;2023-09-12T06:43:13;14.00;;;6.50;;
9461;SDS011;4769;42.660;23.262;2023-09-12T06:45:40;15.93;;;6.50;;
9461;SDS011;4769;42.660;23.262;2023-09-12T06:48:06;10.48;;;5.70;;
9461;SDS011;4769;42.660;23.262;2023-09-12T06:50:31;14.02;;;6.05;;
9461;SDS011;4769;42.660;23.262;2023-09-12T06:53:00;8.73;;;6.00;;
9461;SDS011;4769;42.660;23.262;2023-09-12T06:55:27;10.77;;;6.10;;
9461;SDS011;4769;42.660;23.262;2023-09-12T06:57:53;11.90;;;7.70;;
9461;SDS011;4769;42.660;23.262;2023-09-12T07:00:19;10.85;;;6.30;;
9461;SDS011;4769;42.660;23.262;2023-09-12T07:02:45;11.00;;;6.30;;
9461;SDS011;4769;42.660;23.262;2023-09-12T07:05:10;13.10;;;6.82;;
9461;SDS011;4769;42.660;23.262;2023-09-12T07:07:36;11.13;;;5.82;;
9461;SDS011;4769;42.660;23.262;2023-09-12T07:10:05;12.60;;;6.80;;
9461;SDS011;4769;42.660;23.262;2023-09-12T07:12:31;17.20;;;6.63;;
9461;SDS011;4769;42.660;23.262;2023-09-12T07:14:57;11.95;;;6.22;;
9461;SDS011;4769;42.660;23.262;2023-09-12T07:17:23;14.52;;;5.97;;
9461;SDS011;4769;42.660;23.262;2023-09-12T07:19:48;12.60;;;5.60;;
9461;SDS011;4769;42.660;23.262;2023-09-12T07:22:14;11.05;;;6.00;;
9461;SDS011;4769;42.660;23.262;2023-09-12T07:24:40;8.50;;;5.63;;
9461;SDS011;4769;42.660;23.262;2023-09-12T07:27:08;8.73;;;5.72;;
9461;SDS011;4769;42.660;23.262;2023-09-12T07:29:34;14.20;;;6.07;;
9461;SDS011;4769;42.660;23.262;2023-09-12T07:31:59;11.00;;;5.13;;
9461;SDS011;4769;42.660;23.262;2023-09-12T07:34:25;8.90;;;4.72;;
9461;SDS011;4769;42.660;23.262;2023-09-12T07:36:51;12.13;;;5.20;;
9461;SDS011;4769;42.660;23.262;2023-09-12T07:39:16;11.68;;;5.20;;
9461;SDS011;4769;42.660;23.262;2023-09-12T07:41:42;9.60;;;4.90;;
9461;SDS011;4769;42.660;23.262;2023-09-12T07:44:11;7.88;;;4.82;;
9461;SDS011;4769;42.660;23.262;2023-09-12T07:46:36;7.25;;;4.80;;
9461;SDS011;4769;42.660;23.262;2023-09-12T07:49:02;11.38;;;5.10;;
9461;SDS011;4769;42.660;23.262;2023-09-12T07:51:28;9.85;;;4.90;;
9461;SDS011;4769;42.660;23.262;2023-09-12T07:53:54;12.18;;;5.00;;
9461;SDS011;4769;42.660;23.262;2023-09-12T07:56:19;5.65;;;4.68;;
9461;SDS011;4769;42.660;23.262;2023-09-12T07:58:45;10.35;;;4.40;;
9461;SDS011;4769;42.660;23.262;2023-09-12T08:01:14;9.10;;;4.90;;
9461;SDS011;4769;42.660;23.262;2023-09-12T08:03:41;9.13;;;4.93;;
9461;SDS011;4769;42.660;23.262;2023-09-12T08:06:08;13.45;;;5.85;;
9461;SDS011;4769;42.660;23.262;2023-09-12T08:08:34;10.55;;;5.53;;
9461;SDS011;4769;42.660;23.262;2023-09-12T08:11:00;10.95;;;5.57;;
9461;SDS011;4769;42.660;23.262;2023-09-12T08:13:26;9.02;;;5.53;;
9461;SDS011;4769;42.660;23.262;2023-09-12T08:15:53;8.60;;;4.50;;
9461;SDS011;4769;42.660;23.262;2023-09-12T08:18:25;6.47;;;4.38;;
9461;SDS011;4769;42.660;23.262;2023-09-12T08:20:53;10.60;;;4.50;;
9461;SDS011;4769;42.660;23.262;2023-09-12T08:23:19;9.35;;;4.88;;
9461;SDS011;4769;42.660;23.262;2023-09-12T08:25:45;5.03;;;4.50;;
9461;SDS011;4769;42.660;23.262;2023-09-12T08:28:11;10.10;;;5.07;;
9461;SDS011;4769;42.660;23.262;2023-09-12T08:30:36;8.82;;;4.47;;
9461;SDS011;4769;42.660;23.262;2023-09-12T08:33:02;10.45;;;4.72;;
9461;SDS011;4769;42.660;23.262;2023-09-12T08:35:31;9.52;;;4.38;;
9461;SDS011;4769;42.660;23.262;2023-09-12T08:37:57;12.27;;;5.20;;
9461;SDS011;4769;42.660;23.262;2023-09-12T08:40:23;8.30;;;4.60;;
9461;SDS011;4769;42.660;23.262;2023-09-12T08:42:48;12.98;;;4.60;;
9461;SDS011;4769;42.660;23.262;2023-09-12T08:45:19;7.75;;;4.68;;
9461;SDS011;4769;42.660;23.262;2023-09-12T08:47:45;7.47;;;4.50;;
9461;SDS011;4769;42.660;23.262;2023-09-12T08:50:15;7.93;;;4.40;;
9461;SDS011;4769;42.660;23.262;2023-09-12T08:52:44;7.75;;;4.75;;
9461;SDS011;4769;42.660;23.262;2023-09-12T08:55:11;8.82;;;4.95;;
9461;SDS011;4769;42.660;23.262;2023-09-12T08:57:38;9.43;;;4.25;;
9461;SDS011;4769;42.660;23.262;2023-09-12T09:00:07;10.68;;;4.78;;
9461;SDS011;4769;42.660;23.262;2023-09-12T09:02:33;10.63;;;5.03;;
9461;SDS011;4769;42.660;23.262;2023-09-12T09:05:00;12.07;;;4.88;;
9461;SDS011;4769;42.660;23.262;2023-09-12T09:07:27;8.38;;;4.90;;
9461;SDS011;4769;42.660;23.262;2023-09-12T09:09:56;7.85;;;4.55;;
9461;SDS011;4769;42.660;23.262;2023-09-12T09:12:22;11.18;;;4.50;;
9461;SDS011;4769;42.660;23.262;2023-09-12T09:14:48;9.48;;;4.70;;
9461;SDS011;4769;42.660;23.262;2023-09-12T09:17:14;10.00;;;4.47;;
9461;SDS011;4769;42.660;23.262;2023-09-12T09:19:40;12.93;;;4.65;;
9461;SDS011;4769;42.660;23.262;2023-09-12T09:22:06;7.55;;;4.72;;
9461;SDS011;4769;42.660;23.262;2023-09-12T09:24:32;8.00;;;4.32;;
9461;SDS011;4769;42.660;23.262;2023-09-12T09:27:01;11.25;;;4.60;;
9461;SDS011;4769;42.660;23.262;2023-09-12T09:29:27;6.05;;;4.10;;
9461;SDS011;4769;42.660;23.262;2023-09-12T09:31:53;13.50;;;4.90;;
9461;SDS011;4769;42.660;23.262;2023-09-12T09:34:19;10.30;;;4.47;;
9461;SDS011;4769;42.660;23.262;2023-09-12T09:36:47;9.98;;;4.20;;
9461;SDS011;4769;42.660;23.262;2023-09-12T09:39:14;9.93;;;4.35;;
9461;SDS011;4769;42.660;23.262;2023-09-12T09:41:40;8.40;;;4.85;;
9461;SDS011;4769;42.660;23.262;2023-09-12T09:44:09;9.07;;;4.15;;
9461;SDS011;4769;42.660;23.262;2023-09-12T09:46:35;10.07;;;4.65;;
9461;SDS011;4769;42.660;23.262;2023-09-12T09:49:02;10.25;;;4.30;;
9461;SDS011;4769;42.660;23.262;2023-09-12T09:51:29;11.15;;;4.10;;
9461;SDS011;4769;42.660;23.262;2023-09-12T09:53:55;7.85;;;4.95;;
9461;SDS011;4769;42.660;23.262;2023-09-12T09:56:21;7.65;;;4.80;;
9461;SDS011;4769;42.660;23.262;2023-09-12T09:58:47;9.55;;;4.53;;
9461;SDS011;4769;42.660;23.262;2023-09-12T10:01:16;7.65;;;4.93;;
9461;SDS011;4769;42.660;23.262;2023-09-12T10:03:43;6.30;;;4.38;;
9461;SDS011;4769;42.660;23.262;2023-09-12T10:06:11;8.77;;;4.10;;
9461;SDS011;4769;42.660;23.262;2023-09-12T10:08:38;8.48;;;4.32;;
9461;SDS011;4769;42.660;23.262;2023-09-12T10:11:05;8.60;;;4.20;;
9461;SDS011;4769;42.660;23.262;2023-09-12T10:13:32;7.40;;;4.47;;
9461;SDS011;4769;42.660;23.262;2023-09-12T10:16:00;10.00;;;4.88;;
9461;SDS011;4769;42.660;23.262;2023-09-12T10:18:29;7.30;;;4.57;;
9461;SDS011;4769;42.660;23.262;2023-09-12T10:21:07;8.32;;;4.30;;
9461;SDS011;4769;42.660;23.262;2023-09-12T10:23:38;8.18;;;4.43;;
9461;SDS011;4769;42.660;23.262;2023-09-12T10:26:06;8.88;;;4.25;;
9461;SDS011;4769;42.660;23.262;2023-09-12T10:28:34;7.25;;;4.30;;
9461;SDS011;4769;42.660;23.262;2023-09-12T10:31:00;9.80;;;4.90;;
9461;SDS011;4769;42.660;23.262;2023-09-12T10:33:30;11.98;;;4.38;;
9461;SDS011;4769;42.660;23.262;2023-09-12T10:35:55;8.80;;;4.78;;
9461;SDS011;4769;42.660;23.262;2023-09-12T10:38:22;5.40;;;4.00;;
9461;SDS011;4769;42.660;23.262;2023-09-12T10:40:51;6.68;;;3.92;;
9461;SDS011;4769;42.660;23.262;2023-09-12T10:43:19;7.57;;;4.35;;
9461;SDS011;4769;42.660;23.262;2023-09-12T10:45:46;7.93;;;4.57;;
9461;SDS011;4769;42.660;23.262;2023-09-12T10:48:14;6.03;;;4.30;;
9461;SDS011;4769;42.660;23.262;2023-09-12T10:50:43;4.53;;;3.53;;
9461;SDS011;4769;42.660;23.262;2023-09-12T10:53:10;6.50;;;4.03;;
9461;SDS011;4769;42.660;23.262;2023-09-12T10:55:37;5.53;;;3.97;;
9461;SDS011;4769;42.660;23.262;2023-09-12T10:58:03;8.15;;;4.47;;
9461;SDS011;4769;42.660;23.262;2023-09-12T11:00:30;10.50;;;4.18;;
9461;SDS011;4769;42.660;23.262;2023-09-12T11:02:55;7.32;;;4.50;;
9461;SDS011;4769;42.660;23.262;2023-09-12T11:05:37;6.40;;;4.40;;
9461;SDS011;4769;42.660;23.262;2023-09-12T11:08:17;6.90;;;3.95;;
9461;SDS011;4769;42.660;23.262;2023-09-12T11:10:43;6.18;;;4.00;;
9461;SDS011;4769;42.660;23.262;2023-09-12T11:13:10;5.97;;;4.20;;
9461;SDS011;4769;42.660;23.262;2023-09-12T11:16:09;7.55;;;4.00;;
9461;SDS011;4769;42.660;23.262;2023-09-12T11:18:41;8.40;;;4.22;;
9461;SDS011;4769;42.660;23.262;2023-09-12T11:21:39;10.73;;;5.10;;
9461;SDS011;4769;42.660;23.262;2023-09-12T11:24:08;7.93;;;4.60;;
9461;SDS011;4769;42.660;23.262;2023-09-12T11:26:34;7.55;;;3.97;;
9461;SDS011;4769;42.660;23.262;2023-09-12T11:29:10;8.10;;;4.40;;
9461;SDS011;4769;42.660;23.262;2023-09-12T11:31:36;9.30;;;3.90;;
9461;SDS011;4769;42.660;23.262;2023-09-12T11:34:01;7.97;;;4.07;;
9461;SDS011;4769;42.660;23.262;2023-09-12T11:36:27;12.10;;;4.45;;
9461;SDS011;4769;42.660;23.262;2023-09-12T11:38:53;7.60;;;4.00;;
9461;SDS011;4769;42.660;23.262;2023-09-12T11:44:17;6.22;;;4.32;;
9461;SDS011;4769;42.660;23.262;2023-09-12T11:46:44;5.80;;;3.67;;
9461;SDS011;4769;42.660;23.262;2023-09-12T11:49:12;5.85;;;4.10;;
9461;SDS011;4769;42.660;23.262;2023-09-12T11:51:45;6.35;;;4.03;;
9461;SDS011;4769;42.660;23.262;2023-09-12T11:54:13;7.78;;;3.85;;
9461;SDS011;4769;42.660;23.262;2023-09-12T11:56:39;5.70;;;3.83;;
9461;SDS011;4769;42.660;23.262;2023-09-12T11:59:08;6.63;;;3.42;;
9461;SDS011;4769;42.660;23.262;2023-09-12T12:01:34;4.53;;;3.95;;
9461;SDS011;4769;42.660;23.262;2023-09-12T12:04:00;7.53;;;3.92;;
9461;SDS011;4769;42.660;23.262;2023-09-12T12:06:26;7.07;;;3.83;;
9461;SDS011;4769;42.660;23.262;2023-09-12T12:08:52;7.10;;;3.75;;
9461;SDS011;4769;42.660;23.262;2023-09-12T12:11:18;8.75;;;4.18;;
9461;SDS011;4769;42.660;23.262;2023-09-12T12:13:44;8.65;;;3.72;;
9461;SDS011;4769;42.660;23.262;2023-09-12T12:16:18;9.52;;;4.07;;
9461;SDS011;4769;42.660;23.262;2023-09-12T12:18:44;15.00;;;4.07;;
9461;SDS011;4769;42.660;23.262;2023-09-12T12:21:10;12.43;;;4.40;;
9461;SDS011;4769;42.660;23.262;2023-09-12T12:23:36;7.05;;;3.80;;
9461;SDS011;4769;42.660;23.262;2023-09-12T12:26:02;7.25;;;3.83;;
9461;SDS011;4769;42.660;23.262;2023-09-12T12:28:28;5.28;;;3.78;;
9461;SDS011;4769;42.660;23.262;2023-09-12T12:30:55;8.43;;;3.95;;
9461;SDS011;4769;42.660;23.262;2023-09-12T12:33:24;7.47;;;3.85;;
9461;SDS011;4769;42.660;23.262;2023-09-12T12:35:53;7.38;;;4.03;;
9461;SDS011;4769;42.660;23.262;2023-09-12T12:38:24;12.05;;;4.10;;
9461;SDS011;4769;42.660;23.262;2023-09-12T12:40:50;8.15;;;4.10;;
9461;SDS011;4769;42.660;23.262;2023-09-12T12:43:16;8.68;;;3.92;;
9461;SDS011;4769;42.660;23.262;2023-09-12T12:45:51;8.15;;;4.05;;
9461;SDS011;4769;42.660;23.262;2023-09-12T12:48:17;7.10;;;3.40;;
9461;SDS011;4769;42.660;23.262;2023-09-12T12:50:57;11.65;;;4.50;;
9461;SDS011;4769;42.660;23.262;2023-09-12T12:53:39;7.57;;;4.10;;
9461;SDS011;4769;42.660;23.262;2023-09-12T12:56:05;9.18;;;4.28;;
9461;SDS011;4769;42.660;23.262;2023-09-12T12:58:31;7.00;;;3.63;;
9461;SDS011;4769;42.660;23.262;2023-09-12T13:00:56;8.27;;;4.10;;
9461;SDS011;4769;42.660;23.262;2023-09-12T13:03:22;6.50;;;3.85;;
9461;SDS011;4769;42.660;23.262;2023-09-12T13:05:50;5.57;;;3.70;;
9461;SDS011;4769;42.660;23.262;2023-09-12T13:08:16;17.00;;;15.27;;
9461;SDS011;4769;42.660;23.262;2023-09-12T13:10:42;18.15;;;11.02;;
9461;SDS011;4769;42.660;23.262;2023-09-12T13:13:08;10.77;;;6.93;;
9461;SDS011;4769;42.660;23.262;2023-09-12T13:15:33;6.47;;;3.97;;
9461;SDS011;4769;42.660;23.262;2023-09-12T13:17:59;5.88;;;3.60;;
9461;SDS011;4769;42.660;23.262;2023-09-12T13:20:25;12.13;;;4.97;;
9461;SDS011;4769;42.660;23.262;2023-09-12T13:22:53;8.73;;;4.07;;
9461;SDS011;4769;42.660;23.262;2023-09-12T13:25:19;6.68;;;4.00;;
9461;SDS011;4769;42.660;23.262;2023-09-12T13:27:44;13.60;;;4.30;;
9461;SDS011;4769;42.660;23.262;2023-09-12T13:30:11;6.13;;;4.07;;
9461;SDS011;4769;42.660;23.262;2023-09-12T13:32:37;7.07;;;3.85;;
9461;SDS011;4769;42.660;23.262;2023-09-12T13:35:03;8.70;;;3.80;;
9461;SDS011;4769;42.660;23.262;2023-09-12T13:37:29;9.10;;;3.75;;
9461;SDS011;4769;42.660;23.262;2023-09-12T13:39:57;7.43;;;3.97;;
9461;SDS011;4769;42.660;23.262;2023-09-12T13:42:23;7.85;;;4.20;;
9461;SDS011;4769;42.660;23.262;2023-09-12T13:44:49;9.52;;;4.40;;
9461;SDS011;4769;42.660;23.262;2023-09-12T13:47:15;7.35;;;4.07;;
9461;SDS011;4769;42.660;23.262;2023-09-12T13:49:40;8.93;;;4.20;;
9461;SDS011;4769;42.660;23.262;2023-09-12T13:52:06;6.13;;;4.03;;
9461;SDS011;4769;42.660;23.262;2023-09-12T13:54:32;8.60;;;3.95;;
9461;SDS011;4769;42.660;23.262;2023-09-12T13:57:00;7.63;;;4.40;;
9461;SDS011;4769;42.660;23.262;2023-09-12T13:59:26;6.38;;;4.35;;
9461;SDS011;4769;42.660;23.262;2023-09-12T14:01:51;6.45;;;3.88;;
9461;SDS011;4769;42.660;23.262;2023-09-12T14:04:17;7.35;;;3.63;;
9461;SDS011;4769;42.660;23.262;2023-09-12T14:06:43;10.57;;;4.07;;
9461;SDS011;4769;42.660;23.262;2023-09-12T14:09:08;7.30;;;3.90;;
9461;SDS011;4769;42.660;23.262;2023-09-12T14:11:34;6.88;;;4.20;;
9461;SDS011;4769;42.660;23.262;2023-09-12T14:14:03;8.02;;;4.45;;
9461;SDS011;4769;42.660;23.262;2023-09-12T14:16:29;6.95;;;3.72;;
9461;SDS011;4769;42.660;23.262;2023-09-12T14:18:55;5.80;;;3.80;;
9461;SDS011;4769;42.660;23.262;2023-09-12T14:21:20;7.22;;;4.05;;
9461;SDS011;4769;42.660;23.262;2023-09-12T14:23:46;7.50;;;3.85;;
9461;SDS011;4769;42.660;23.262;2023-09-12T14:26:12;9.95;;;4.10;;
9461;SDS011;4769;42.660;23.262;2023-09-12T14:28:37;7.88;;;4.03;;
9461;SDS011;4769;42.660;23.262;2023-09-12T14:31:06;7.30;;;4.30;;
9461;SDS011;4769;42.660;23.262;2023-09-12T14:33:31;7.68;;;4.30;;
9461;SDS011;4769;42.660;23.262;2023-09-12T14:35:57;7.40;;;4.30;;
9461;SDS011;4769;42.660;23.262;2023-09-12T14:38:23;9.45;;;4.53;;
9461;SDS011;4769;42.660;23.262;2023-09-12T14:40:49;8.68;;;3.45;;
9461;SDS011;4769;42.660;23.262;2023-09-12T14:43:14;10.43;;;4.40;;
9461;SDS011;4769;42.660;23.262;2023-09-12T14:45:40;9.30;;;3.85;;
9461;SDS011;4769;42.660;23.262;2023-09-12T14:48:09;7.22;;;3.90;;
9461;SDS011;4769;42.660;23.262;2023-09-12T14:50:34;5.30;;;3.30;;
9461;SDS011;4769;42.660;23.262;2023-09-12T14:53:00;10.77;;;4.30;;
9461;SDS011;4769;42.660;23.262;2023-09-12T14:55:26;9.07;;;3.95;;
9461;SDS011;4769;42.660;23.262;2023-09-12T14:57:52;6.32;;;4.10;;
9461;SDS011;4769;42.660;23.262;2023-09-12T15:00:17;11.73;;;4.63;;